sensor_id;sensor_type;location;lat;lon;timestamp;temperature;humidity
26703;DHT22;14316;51.074;3.704;2024-02-21T00:01:04;9.40;99.90
26703;DHT22;14316;51.074;3.704;2024-02-21T00:03:31;9.40;99.90
26703;DHT22;14316;51.074;3.704;2024-02-21T00:05:56;9.30;99.90
26703;DHT22;14316;51.074;3.704;2024-02-21T00:08:22;9.30;99.90
26703;DHT22;14316;51.074;3.704;2024-02-21T00:10:48;9.30;99.90
26703;DHT22;14316;51.074;3.704;2024-02-21T00:13:15;9.30;99.90
26703;DHT22;14316;51.074;3.704;2024-02-21T00:15:40;9.30;99.90
26703;DHT22;14316;51.074;3.704;2024-02-21T00:18:06;9.40;99.90
26703;DHT22;14316;51.074;3.704;2024-02-21T00:20:32;9.40;99.90
26703;DHT22;14316;51.074;3.704;2024-02-21T00:22:58;9.50;99.90
26703;DHT22;14316;51.074;3.704;2024-02-21T00:25:24;9.40;99.90
26703;DHT22;14316;51.074;3.704;2024-02-21T00:27:50;9.40;99.90
26703;DHT22;14316;51.074;3.704;2024-02-21T00:30:16;9.30;99.90
26703;DHT22;14316;51.074;3.704;2024-02-21T00:32:42;9.30;99.90
26703;DHT22;14316;51.074;3.704;2024-02-21T00:35:08;9.30;99.90
26703;DHT22;14316;51.074;3.704;2024-02-21T00:37:34;9.20;99.90
26703;DHT22;14316;51.074;3.704;2024-02-21T00:40:00;9.30;99.90
26703;DHT22;14316;51.074;3.704;2024-02-21T00:42:26;9.30;99.90
26703;DHT22;14316;51.074;3.704;2024-02-21T00:44:52;9.30;99.90
26703;DHT22;14316;51.074;3.704;2024-02-21T00:47:17;9.20;99.90
26703;DHT22;14316;51.074;3.704;2024-02-21T00:49:43;9.20;99.90
26703;DHT22;14316;51.074;3.704;2024-02-21T00:52:09;9.20;99.90
26703;DHT22;14316;51.074;3.704;2024-02-21T00:54:35;9.20;99.90
26703;DHT22;14316;51.074;3.704;2024-02-21T00:57:01;9.20;99.90
26703;DHT22;14316;51.074;3.704;2024-02-21T00:59:27;9.10;99.90
26703;DHT22;14316;51.074;3.704;2024-02-21T01:01:53;9.10;99.90
26703;DHT22;14316;51.074;3.704;2024-02-21T01:04:19;9.10;99.90
26703;DHT22;14316;51.074;3.704;2024-02-21T01:06:45;9.10;99.90
26703;DHT22;14316;51.074;3.704;2024-02-21T01:09:13;9.00;99.90
26703;DHT22;14316;51.074;3.704;2024-02-21T01:11:39;9.00;99.90
26703;DHT22;14316;51.074;3.704;2024-02-21T01:14:05;9.00;99.90
26703;DHT22;14316;51.074;3.704;2024-02-21T01:16:31;9.00;99.90
26703;DHT22;14316;51.074;3.704;2024-02-21T01:18:57;9.00;99.90
26703;DHT22;14316;51.074;3.704;2024-02-21T01:21:23;8.90;99.90
26703;DHT22;14316;51.074;3.704;2024-02-21T01:23:49;8.90;99.90
26703;DHT22;14316;51.074;3.704;2024-02-21T01:26:15;8.90;99.90
26703;DHT22;14316;51.074;3.704;2024-02-21T01:28:41;8.90;99.90
26703;DHT22;14316;51.074;3.704;2024-02-21T01:31:07;8.90;99.90
26703;DHT22;14316;51.074;3.704;2024-02-21T01:33:33;8.90;99.90
26703;DHT22;14316;51.074;3.704;2024-02-21T01:36:04;8.90;99.90
26703;DHT22;14316;51.074;3.704;2024-02-21T01:38:33;8.60;99.90
26703;DHT22;14316;51.074;3.704;2024-02-21T01:40:59;8.80;99.90
26703;DHT22;14316;51.074;3.704;2024-02-21T01:43:25;8.80;99.90
26703;DHT22;14316;51.074;3.704;2024-02-21T01:45:54;8.80;99.90
26703;DHT22;14316;51.074;3.704;2024-02-21T01:48:22;8.70;99.90
26703;DHT22;14316;51.074;3.704;2024-02-21T01:50:49;8.70;99.90
26703;DHT22;14316;51.074;3.704;2024-02-21T01:53:23;8.70;99.90
26703;DHT22;14316;51.074;3.704;2024-02-21T01:55:50;8.80;99.90
26703;DHT22;14316;51.074;3.704;2024-02-21T01:58:17;8.70;99.90
26703;DHT22;14316;51.074;3.704;2024-02-21T02:00:45;8.80;99.90
26703;DHT22;14316;51.074;3.704;2024-02-21T02:03:12;8.80;99.90
26703;DHT22;14316;51.074;3.704;2024-02-21T02:05:45;8.80;99.90
26703;DHT22;14316;51.074;3.704;2024-02-21T02:08:16;8.80;99.90
26703;DHT22;14316;51.074;3.704;2024-02-21T02:10:42;8.90;99.90
26703;DHT22;14316;51.074;3.704;2024-02-21T02:13:09;9.00;99.90
26703;DHT22;14316;51.074;3.704;2024-02-21T02:15:47;9.10;99.90
26703;DHT22;14316;51.074;3.704;2024-02-21T02:18:15;9.10;99.90
26703;DHT22;14316;51.074;3.704;2024-02-21T02:20:41;9.00;99.90
26703;DHT22;14316;51.074;3.704;2024-02-21T02:25:52;9.00;99.90
26703;DHT22;14316;51.074;3.704;2024-02-21T02:28:19;9.00;99.90
26703;DHT22;14316;51.074;3.704;2024-02-21T02:30:46;9.00;99.90
26703;DHT22;14316;51.074;3.704;2024-02-21T02:33:12;9.10;99.90
26703;DHT22;14316;51.074;3.704;2024-02-21T02:35:38;9.00;99.90
26703;DHT22;14316;51.074;3.704;2024-02-21T02:38:04;8.90;99.90
26703;DHT22;14316;51.074;3.704;2024-02-21T02:40:30;9.00;99.90
26703;DHT22;14316;51.074;3.704;2024-02-21T02:42:56;8.90;99.90
26703;DHT22;14316;51.074;3.704;2024-02-21T02:45:23;8.90;99.90
26703;DHT22;14316;51.074;3.704;2024-02-21T02:47:52;9.00;99.90
26703;DHT22;14316;51.074;3.704;2024-02-21T02:50:19;9.00;99.90
26703;DHT22;14316;51.074;3.704;2024-02-21T02:52:46;9.00;99.90
26703;DHT22;14316;51.074;3.704;2024-02-21T02:55:12;8.90;99.90
26703;DHT22;14316;51.074;3.704;2024-02-21T02:57:38;8.90;99.90
26703;DHT22;14316;51.074;3.704;2024-02-21T03:00:05;8.80;99.90
26703;DHT22;14316;51.074;3.704;2024-02-21T03:02:32;8.80;99.90
26703;DHT22;14316;51.074;3.704;2024-02-21T03:04:58;8.80;99.90
26703;DHT22;14316;51.074;3.704;2024-02-21T03:07:25;8.80;99.90
26703;DHT22;14316;51.074;3.704;2024-02-21T03:09:51;8.70;99.90
26703;DHT22;14316;51.074;3.704;2024-02-21T03:12:18;8.70;99.90
26703;DHT22;14316;51.074;3.704;2024-02-21T03:14:50;8.70;99.90
26703;DHT22;14316;51.074;3.704;2024-02-21T03:17:16;8.70;99.90
26703;DHT22;14316;51.074;3.704;2024-02-21T03:19:42;8.70;99.90
26703;DHT22;14316;51.074;3.704;2024-02-21T03:22:08;8.60;99.90
26703;DHT22;14316;51.074;3.704;2024-02-21T03:24:34;8.60;99.90
26703;DHT22;14316;51.074;3.704;2024-02-21T03:27:06;8.60;99.90
26703;DHT22;14316;51.074;3.704;2024-02-21T03:29:31;8.70;99.90
26703;DHT22;14316;51.074;3.704;2024-02-21T03:31:57;8.70;99.90
26703;DHT22;14316;51.074;3.704;2024-02-21T03:34:23;8.80;99.90
26703;DHT22;14316;51.074;3.704;2024-02-21T03:36:49;9.00;99.90
26703;DHT22;14316;51.074;3.704;2024-02-21T03:39:15;8.90;99.90
26703;DHT22;14316;51.074;3.704;2024-02-21T03:41:41;8.80;99.90
26703;DHT22;14316;51.074;3.704;2024-02-21T03:44:07;8.70;99.90
26703;DHT22;14316;51.074;3.704;2024-02-21T03:46:33;8.70;99.90
26703;DHT22;14316;51.074;3.704;2024-02-21T03:48:59;8.60;99.90
26703;DHT22;14316;51.074;3.704;2024-02-21T03:51:26;8.60;99.90
26703;DHT22;14316;51.074;3.704;2024-02-21T03:53:52;8.60;99.90
26703;DHT22;14316;51.074;3.704;2024-02-21T03:56:17;8.60;99.90
26703;DHT22;14316;51.074;3.704;2024-02-21T03:58:43;8.60;99.90
26703;DHT22;14316;51.074;3.704;2024-02-21T04:01:09;8.60;99.90
26703;DHT22;14316;51.074;3.704;2024-02-21T04:03:35;8.60;99.90
26703;DHT22;14316;51.074;3.704;2024-02-21T04:06:01;8.60;99.90
26703;DHT22;14316;51.074;3.704;2024-02-21T04:08:27;8.60;99.90
26703;DHT22;14316;51.074;3.704;2024-02-21T04:10:53;8.70;99.90
26703;DHT22;14316;51.074;3.704;2024-02-21T04:13:19;8.70;99.90
26703;DHT22;14316;51.074;3.704;2024-02-21T04:15:45;8.70;99.90
26703;DHT22;14316;51.074;3.704;2024-02-21T04:18:11;8.70;99.90
26703;DHT22;14316;51.074;3.704;2024-02-21T04:20:37;8.70;99.90
26703;DHT22;14316;51.074;3.704;2024-02-21T04:23:03;8.60;99.90
26703;DHT22;14316;51.074;3.704;2024-02-21T04:25:29;8.70;99.90
26703;DHT22;14316;51.074;3.704;2024-02-21T04:27:55;8.70;99.90
26703;DHT22;14316;51.074;3.704;2024-02-21T04:30:20;8.60;99.90
26703;DHT22;14316;51.074;3.704;2024-02-21T04:32:46;8.60;99.90
26703;DHT22;14316;51.074;3.704;2024-02-21T04:35:12;8.60;99.90
26703;DHT22;14316;51.074;3.704;2024-02-21T04:37:38;8.60;99.90
26703;DHT22;14316;51.074;3.704;2024-02-21T04:40:04;8.60;99.90
26703;DHT22;14316;51.074;3.704;2024-02-21T04:42:30;8.60;99.90
26703;DHT22;14316;51.074;3.704;2024-02-21T04:44:56;8.70;99.90
26703;DHT22;14316;51.074;3.704;2024-02-21T04:47:22;8.70;99.90
26703;DHT22;14316;51.074;3.704;2024-02-21T04:49:52;8.60;99.90
26703;DHT22;14316;51.074;3.704;2024-02-21T04:52:18;8.70;99.90
26703;DHT22;14316;51.074;3.704;2024-02-21T04:54:44;8.60;99.90
26703;DHT22;14316;51.074;3.704;2024-02-21T04:57:10;8.60;99.90
26703;DHT22;14316;51.074;3.704;2024-02-21T04:59:36;8.60;99.90
26703;DHT22;14316;51.074;3.704;2024-02-21T05:02:02;8.60;99.90
26703;DHT22;14316;51.074;3.704;2024-02-21T05:04:28;8.70;99.90
26703;DHT22;14316;51.074;3.704;2024-02-21T05:06:54;8.60;99.90
26703;DHT22;14316;51.074;3.704;2024-02-21T05:09:20;8.60;99.90
26703;DHT22;14316;51.074;3.704;2024-02-21T05:11:46;8.60;99.90
26703;DHT22;14316;51.074;3.704;2024-02-21T05:14:13;8.70;99.90
26703;DHT22;14316;51.074;3.704;2024-02-21T05:16:39;8.70;99.90
26703;DHT22;14316;51.074;3.704;2024-02-21T05:19:05;8.60;99.90
26703;DHT22;14316;51.074;3.704;2024-02-21T05:21:31;8.60;99.90
26703;DHT22;14316;51.074;3.704;2024-02-21T05:23:57;8.70;99.90
26703;DHT22;14316;51.074;3.704;2024-02-21T05:26:25;8.70;99.90
26703;DHT22;14316;51.074;3.704;2024-02-21T05:28:51;8.60;99.90
26703;DHT22;14316;51.074;3.704;2024-02-21T05:31:20;8.60;99.90
26703;DHT22;14316;51.074;3.704;2024-02-21T05:33:47;8.70;99.90
26703;DHT22;14316;51.074;3.704;2024-02-21T05:36:13;8.70;99.90
26703;DHT22;14316;51.074;3.704;2024-02-21T05:38:39;8.70;99.90
26703;DHT22;14316;51.074;3.704;2024-02-21T05:41:05;8.70;99.90
26703;DHT22;14316;51.074;3.704;2024-02-21T05:43:31;8.70;99.90
26703;DHT22;14316;51.074;3.704;2024-02-21T05:45:57;8.70;99.90
26703;DHT22;14316;51.074;3.704;2024-02-21T05:48:23;8.80;99.90
26703;DHT22;14316;51.074;3.704;2024-02-21T05:50:49;8.80;99.90
26703;DHT22;14316;51.074;3.704;2024-02-21T05:53:15;8.80;99.90
26703;DHT22;14316;51.074;3.704;2024-02-21T05:55:41;8.80;99.90
26703;DHT22;14316;51.074;3.704;2024-02-21T05:58:08;8.90;99.90
26703;DHT22;14316;51.074;3.704;2024-02-21T06:00:37;8.80;99.90
26703;DHT22;14316;51.074;3.704;2024-02-21T06:03:03;8.80;99.90
26703;DHT22;14316;51.074;3.704;2024-02-21T06:05:29;8.70;99.90
26703;DHT22;14316;51.074;3.704;2024-02-21T06:07:56;8.70;99.90
26703;DHT22;14316;51.074;3.704;2024-02-21T06:10:22;8.70;99.90
26703;DHT22;14316;51.074;3.704;2024-02-21T06:12:48;8.70;99.90
26703;DHT22;14316;51.074;3.704;2024-02-21T06:15:14;8.70;99.90
26703;DHT22;14316;51.074;3.704;2024-02-21T06:17:40;8.70;99.90
26703;DHT22;14316;51.074;3.704;2024-02-21T06:20:06;8.70;99.90
26703;DHT22;14316;51.074;3.704;2024-02-21T06:22:33;8.70;99.90
26703;DHT22;14316;51.074;3.704;2024-02-21T06:24:59;8.70;99.90
26703;DHT22;14316;51.074;3.704;2024-02-21T06:27:25;8.70;99.90
26703;DHT22;14316;51.074;3.704;2024-02-21T06:29:51;8.70;99.90
26703;DHT22;14316;51.074;3.704;2024-02-21T06:32:17;8.70;99.90
26703;DHT22;14316;51.074;3.704;2024-02-21T06:34:43;8.60;99.90
26703;DHT22;14316;51.074;3.704;2024-02-21T06:37:09;8.70;99.90
26703;DHT22;14316;51.074;3.704;2024-02-21T06:39:35;8.70;99.90
26703;DHT22;14316;51.074;3.704;2024-02-21T06:42:03;8.70;99.90
26703;DHT22;14316;51.074;3.704;2024-02-21T06:44:29;8.70;99.90
26703;DHT22;14316;51.074;3.704;2024-02-21T06:46:57;8.80;99.90
26703;DHT22;14316;51.074;3.704;2024-02-21T06:49:24;8.80;99.90
26703;DHT22;14316;51.074;3.704;2024-02-21T06:51:50;8.80;99.90
26703;DHT22;14316;51.074;3.704;2024-02-21T06:54:16;8.80;99.90
26703;DHT22;14316;51.074;3.704;2024-02-21T06:56:42;8.90;99.90
26703;DHT22;14316;51.074;3.704;2024-02-21T06:59:08;8.90;99.90
26703;DHT22;14316;51.074;3.704;2024-02-21T07:01:34;8.90;99.90
26703;DHT22;14316;51.074;3.704;2024-02-21T07:03:59;9.00;99.90
26703;DHT22;14316;51.074;3.704;2024-02-21T07:06:25;9.00;99.90
26703;DHT22;14316;51.074;3.704;2024-02-21T07:08:51;8.90;99.90
26703;DHT22;14316;51.074;3.704;2024-02-21T07:11:17;8.90;99.90
26703;DHT22;14316;51.074;3.704;2024-02-21T07:13:42;8.90;99.90
26703;DHT22;14316;51.074;3.704;2024-02-21T07:16:08;8.90;99.90
26703;DHT22;14316;51.074;3.704;2024-02-21T07:18:34;8.90;99.90
26703;DHT22;14316;51.074;3.704;2024-02-21T07:21:00;8.90;99.90
26703;DHT22;14316;51.074;3.704;2024-02-21T07:23:26;8.90;99.90
26703;DHT22;14316;51.074;3.704;2024-02-21T07:25:51;8.90;99.90
26703;DHT22;14316;51.074;3.704;2024-02-21T07:28:17;8.90;99.90
26703;DHT22;14316;51.074;3.704;2024-02-21T07:30:43;8.90;99.90
26703;DHT22;14316;51.074;3.704;2024-02-21T07:33:09;8.90;99.90
26703;DHT22;14316;51.074;3.704;2024-02-21T07:35:35;8.90;99.90
26703;DHT22;14316;51.074;3.704;2024-02-21T07:38:06;9.00;99.90
26703;DHT22;14316;51.074;3.704;2024-02-21T07:40:32;9.00;99.90
26703;DHT22;14316;51.074;3.704;2024-02-21T07:42:58;9.30;99.90
26703;DHT22;14316;51.074;3.704;2024-02-21T07:45:24;9.10;99.90
26703;DHT22;14316;51.074;3.704;2024-02-21T07:47:50;9.10;99.90
26703;DHT22;14316;51.074;3.704;2024-02-21T07:50:16;9.10;99.90
26703;DHT22;14316;51.074;3.704;2024-02-21T07:52:43;9.10;99.90
26703;DHT22;14316;51.074;3.704;2024-02-21T07:55:09;9.20;99.90
26703;DHT22;14316;51.074;3.704;2024-02-21T07:57:38;9.10;99.90
26703;DHT22;14316;51.074;3.704;2024-02-21T08:00:04;9.20;99.90
26703;DHT22;14316;51.074;3.704;2024-02-21T08:02:30;9.30;99.90
26703;DHT22;14316;51.074;3.704;2024-02-21T08:04:56;9.40;99.90
26703;DHT22;14316;51.074;3.704;2024-02-21T08:07:21;9.40;99.90
26703;DHT22;14316;51.074;3.704;2024-02-21T08:09:47;9.50;99.90
26703;DHT22;14316;51.074;3.704;2024-02-21T08:12:13;9.50;99.90
26703;DHT22;14316;51.074;3.704;2024-02-21T08:14:39;9.40;99.90
26703;DHT22;14316;51.074;3.704;2024-02-21T08:17:05;9.50;99.90
26703;DHT22;14316;51.074;3.704;2024-02-21T08:19:31;9.40;99.90
26703;DHT22;14316;51.074;3.704;2024-02-21T08:21:57;9.40;99.90
26703;DHT22;14316;51.074;3.704;2024-02-21T08:24:23;9.50;99.90
26703;DHT22;14316;51.074;3.704;2024-02-21T08:26:49;9.50;99.90
26703;DHT22;14316;51.074;3.704;2024-02-21T08:29:15;9.40;99.90
26703;DHT22;14316;51.074;3.704;2024-02-21T08:31:41;9.40;99.90
26703;DHT22;14316;51.074;3.704;2024-02-21T08:34:07;9.60;99.90
26703;DHT22;14316;51.074;3.704;2024-02-21T08:36:34;9.80;99.90
26703;DHT22;14316;51.074;3.704;2024-02-21T08:39:01;9.70;99.90
26703;DHT22;14316;51.074;3.704;2024-02-21T08:41:31;9.70;99.90
26703;DHT22;14316;51.074;3.704;2024-02-21T08:43:57;9.70;99.90
26703;DHT22;14316;51.074;3.704;2024-02-21T08:46:24;9.90;99.90
26703;DHT22;14316;51.074;3.704;2024-02-21T08:48:50;10.00;99.90
26703;DHT22;14316;51.074;3.704;2024-02-21T08:51:17;10.00;99.90
26703;DHT22;14316;51.074;3.704;2024-02-21T08:53:45;9.80;99.90
26703;DHT22;14316;51.074;3.704;2024-02-21T08:56:11;9.80;99.90
26703;DHT22;14316;51.074;3.704;2024-02-21T08:58:38;9.50;99.90
26703;DHT22;14316;51.074;3.704;2024-02-21T09:01:05;9.50;99.90
26703;DHT22;14316;51.074;3.704;2024-02-21T09:03:33;9.40;99.90
26703;DHT22;14316;51.074;3.704;2024-02-21T09:05:59;9.50;99.90
26703;DHT22;14316;51.074;3.704;2024-02-21T09:08:26;9.80;99.90
26703;DHT22;14316;51.074;3.704;2024-02-21T09:10:53;9.70;99.90
26703;DHT22;14316;51.074;3.704;2024-02-21T09:13:19;9.80;99.90
26703;DHT22;14316;51.074;3.704;2024-02-21T09:15:45;10.00;99.90
26703;DHT22;14316;51.074;3.704;2024-02-21T09:18:11;10.30;99.90
26703;DHT22;14316;51.074;3.704;2024-02-21T09:20:37;10.60;99.90
26703;DHT22;14316;51.074;3.704;2024-02-21T09:23:03;10.80;99.90
26703;DHT22;14316;51.074;3.704;2024-02-21T09:25:29;10.70;99.90
26703;DHT22;14316;51.074;3.704;2024-02-21T09:27:55;10.50;99.90
26703;DHT22;14316;51.074;3.704;2024-02-21T09:30:21;10.50;99.90
26703;DHT22;14316;51.074;3.704;2024-02-21T09:32:47;10.50;99.90
26703;DHT22;14316;51.074;3.704;2024-02-21T09:35:13;10.50;99.90
26703;DHT22;14316;51.074;3.704;2024-02-21T09:37:39;10.10;99.90
26703;DHT22;14316;51.074;3.704;2024-02-21T09:40:06;9.80;99.90
26703;DHT22;14316;51.074;3.704;2024-02-21T09:42:40;9.60;99.90
26703;DHT22;14316;51.074;3.704;2024-02-21T09:45:23;9.50;99.90
26703;DHT22;14316;51.074;3.704;2024-02-21T09:50:46;9.60;99.90
26703;DHT22;14316;51.074;3.704;2024-02-21T09:53:13;9.60;99.90
26703;DHT22;14316;51.074;3.704;2024-02-21T09:55:40;9.70;99.90
26703;DHT22;14316;51.074;3.704;2024-02-21T09:58:08;9.80;99.90
26703;DHT22;14316;51.074;3.704;2024-02-21T10:00:38;9.80;99.90
26703;DHT22;14316;51.074;3.704;2024-02-21T10:03:04;9.80;99.90
26703;DHT22;14316;51.074;3.704;2024-02-21T10:05:36;9.80;99.90
26703;DHT22;14316;51.074;3.704;2024-02-21T10:08:04;9.90;99.90
26703;DHT22;14316;51.074;3.704;2024-02-21T10:10:40;10.10;99.90
26703;DHT22;14316;51.074;3.704;2024-02-21T10:13:06;10.20;99.90
26703;DHT22;14316;51.074;3.704;2024-02-21T10:15:33;9.90;99.90
26703;DHT22;14316;51.074;3.704;2024-02-21T10:18:02;9.80;99.90
26703;DHT22;14316;51.074;3.704;2024-02-21T10:20:32;9.80;99.90
26703;DHT22;14316;51.074;3.704;2024-02-21T10:23:05;9.80;99.90
26703;DHT22;14316;51.074;3.704;2024-02-21T10:25:38;9.90;99.90
26703;DHT22;14316;51.074;3.704;2024-02-21T10:28:07;10.00;99.90
26703;DHT22;14316;51.074;3.704;2024-02-21T10:30:33;10.10;99.90
26703;DHT22;14316;51.074;3.704;2024-02-21T10:32:59;10.30;99.90
26703;DHT22;14316;51.074;3.704;2024-02-21T10:35:29;10.20;99.90
26703;DHT22;14316;51.074;3.704;2024-02-21T10:37:56;10.00;99.90
26703;DHT22;14316;51.074;3.704;2024-02-21T10:40:28;10.10;99.90
26703;DHT22;14316;51.074;3.704;2024-02-21T10:43:01;10.00;99.90
26703;DHT22;14316;51.074;3.704;2024-02-21T10:45:32;10.00;99.90
26703;DHT22;14316;51.074;3.704;2024-02-21T10:48:24;10.00;99.90
26703;DHT22;14316;51.074;3.704;2024-02-21T10:51:07;10.20;99.90
26703;DHT22;14316;51.074;3.704;2024-02-21T10:59:01;10.10;99.90
26703;DHT22;14316;51.074;3.704;2024-02-21T11:01:31;10.00;99.90
26703;DHT22;14316;51.074;3.704;2024-02-21T11:04:01;10.20;99.90
26703;DHT22;14316;51.074;3.704;2024-02-21T11:06:28;10.00;99.90
26703;DHT22;14316;51.074;3.704;2024-02-21T11:09:07;9.80;99.90
26703;DHT22;14316;51.074;3.704;2024-02-21T11:11:46;9.90;99.90
26703;DHT22;14316;51.074;3.704;2024-02-21T11:14:19;9.70;99.90
26703;DHT22;14316;51.074;3.704;2024-02-21T11:16:45;9.70;99.90
26703;DHT22;14316;51.074;3.704;2024-02-21T11:19:25;9.60;99.90
26703;DHT22;14316;51.074;3.704;2024-02-21T11:21:52;9.60;99.90
26703;DHT22;14316;51.074;3.704;2024-02-21T11:27:09;9.70;99.90
26703;DHT22;14316;51.074;3.704;2024-02-21T11:29:49;9.70;99.90
26703;DHT22;14316;51.074;3.704;2024-02-21T11:32:19;9.80;99.90
26703;DHT22;14316;51.074;3.704;2024-02-21T11:34:59;9.70;99.90
26703;DHT22;14316;51.074;3.704;2024-02-21T11:37:29;9.70;99.90
26703;DHT22;14316;51.074;3.704;2024-02-21T11:39:56;9.90;99.90
26703;DHT22;14316;51.074;3.704;2024-02-21T11:42:22;9.90;99.90
26703;DHT22;14316;51.074;3.704;2024-02-21T11:44:48;9.90;99.90
26703;DHT22;14316;51.074;3.704;2024-02-21T11:47:15;9.80;99.90
26703;DHT22;14316;51.074;3.704;2024-02-21T11:49:46;9.90;99.90
26703;DHT22;14316;51.074;3.704;2024-02-21T11:52:15;9.80;99.90
26703;DHT22;14316;51.074;3.704;2024-02-21T11:54:42;9.80;99.90
26703;DHT22;14316;51.074;3.704;2024-02-21T11:57:08;9.90;99.90
26703;DHT22;14316;51.074;3.704;2024-02-21T11:59:34;9.90;99.90
26703;DHT22;14316;51.074;3.704;2024-02-21T12:02:01;9.80;99.90
26703;DHT22;14316;51.074;3.704;2024-02-21T12:04:29;9.80;99.90
26703;DHT22;14316;51.074;3.704;2024-02-21T12:06:58;9.80;99.90
26703;DHT22;14316;51.074;3.704;2024-02-21T12:09:25;9.80;99.90
26703;DHT22;14316;51.074;3.704;2024-02-21T12:11:58;9.80;99.90
26703;DHT22;14316;51.074;3.704;2024-02-21T12:14:25;9.80;99.90
26703;DHT22;14316;51.074;3.704;2024-02-21T12:16:51;9.80;99.90
26703;DHT22;14316;51.074;3.704;2024-02-21T12:19:17;9.80;99.90
26703;DHT22;14316;51.074;3.704;2024-02-21T12:21:43;9.80;99.90
26703;DHT22;14316;51.074;3.704;2024-02-21T12:24:24;9.90;99.90
26703;DHT22;14316;51.074;3.704;2024-02-21T12:26:53;9.80;99.90
26703;DHT22;14316;51.074;3.704;2024-02-21T12:29:23;9.80;99.90
26703;DHT22;14316;51.074;3.704;2024-02-21T12:31:53;9.90;99.90
26703;DHT22;14316;51.074;3.704;2024-02-21T12:34:23;10.00;99.90
26703;DHT22;14316;51.074;3.704;2024-02-21T12:36:49;9.90;99.90
26703;DHT22;14316;51.074;3.704;2024-02-21T12:39:15;9.90;99.90
26703;DHT22;14316;51.074;3.704;2024-02-21T12:41:42;10.00;99.90
26703;DHT22;14316;51.074;3.704;2024-02-21T12:44:10;10.00;99.90
26703;DHT22;14316;51.074;3.704;2024-02-21T12:46:37;10.00;99.90
26703;DHT22;14316;51.074;3.704;2024-02-21T12:49:03;10.00;99.90
26703;DHT22;14316;51.074;3.704;2024-02-21T12:51:33;10.00;99.90
26703;DHT22;14316;51.074;3.704;2024-02-21T12:53:59;10.10;99.90
26703;DHT22;14316;51.074;3.704;2024-02-21T12:56:25;10.10;99.90
26703;DHT22;14316;51.074;3.704;2024-02-21T12:58:53;10.00;99.90
26703;DHT22;14316;51.074;3.704;2024-02-21T13:01:19;10.10;99.90
26703;DHT22;14316;51.074;3.704;2024-02-21T13:03:45;10.20;99.90
26703;DHT22;14316;51.074;3.704;2024-02-21T13:06:12;10.10;99.90
26703;DHT22;14316;51.074;3.704;2024-02-21T13:08:38;10.10;99.90
26703;DHT22;14316;51.074;3.704;2024-02-21T13:11:05;10.10;99.90
26703;DHT22;14316;51.074;3.704;2024-02-21T13:13:31;10.00;99.90
26703;DHT22;14316;51.074;3.704;2024-02-21T13:15:58;10.00;99.90
26703;DHT22;14316;51.074;3.704;2024-02-21T13:18:24;9.80;99.90
26703;DHT22;14316;51.074;3.704;2024-02-21T13:20:49;9.60;99.90
26703;DHT22;14316;51.074;3.704;2024-02-21T13:23:15;9.50;99.90
26703;DHT22;14316;51.074;3.704;2024-02-21T13:25:41;9.50;99.90
26703;DHT22;14316;51.074;3.704;2024-02-21T13:28:08;9.50;99.90
26703;DHT22;14316;51.074;3.704;2024-02-21T13:30:35;9.60;99.90
26703;DHT22;14316;51.074;3.704;2024-02-21T13:33:01;9.60;99.90
26703;DHT22;14316;51.074;3.704;2024-02-21T13:35:28;9.60;99.90
26703;DHT22;14316;51.074;3.704;2024-02-21T13:37:54;9.50;99.90
26703;DHT22;14316;51.074;3.704;2024-02-21T13:40:20;9.50;99.90
26703;DHT22;14316;51.074;3.704;2024-02-21T13:42:46;9.50;99.90
26703;DHT22;14316;51.074;3.704;2024-02-21T13:45:12;9.60;99.90
26703;DHT22;14316;51.074;3.704;2024-02-21T13:47:38;9.50;99.90
26703;DHT22;14316;51.074;3.704;2024-02-21T13:50:05;9.60;99.90
26703;DHT22;14316;51.074;3.704;2024-02-21T13:52:36;9.70;99.90
26703;DHT22;14316;51.074;3.704;2024-02-21T13:55:02;9.80;99.90
26703;DHT22;14316;51.074;3.704;2024-02-21T13:57:28;9.80;99.90
26703;DHT22;14316;51.074;3.704;2024-02-21T13:59:54;9.60;99.90
26703;DHT22;14316;51.074;3.704;2024-02-21T14:02:20;9.80;99.90
26703;DHT22;14316;51.074;3.704;2024-02-21T14:04:47;9.90;99.90
26703;DHT22;14316;51.074;3.704;2024-02-21T14:07:13;9.80;99.90
26703;DHT22;14316;51.074;3.704;2024-02-21T14:09:39;9.70;99.90
26703;DHT22;14316;51.074;3.704;2024-02-21T14:12:05;9.70;99.90
26703;DHT22;14316;51.074;3.704;2024-02-21T14:14:35;9.60;99.90
26703;DHT22;14316;51.074;3.704;2024-02-21T14:17:03;9.60;99.90
26703;DHT22;14316;51.074;3.704;2024-02-21T14:19:29;9.70;99.90
26703;DHT22;14316;51.074;3.704;2024-02-21T14:21:55;9.60;99.90
26703;DHT22;14316;51.074;3.704;2024-02-21T14:24:22;9.70;99.90
26703;DHT22;14316;51.074;3.704;2024-02-21T14:26:48;9.70;99.90
26703;DHT22;14316;51.074;3.704;2024-02-21T14:29:14;9.80;99.90
26703;DHT22;14316;51.074;3.704;2024-02-21T14:31:40;9.60;99.90
26703;DHT22;14316;51.074;3.704;2024-02-21T14:34:06;9.40;99.90
26703;DHT22;14316;51.074;3.704;2024-02-21T14:36:33;9.40;99.90
26703;DHT22;14316;51.074;3.704;2024-02-21T14:38:59;9.40;99.90
26703;DHT22;14316;51.074;3.704;2024-02-21T14:41:25;9.40;99.90
26703;DHT22;14316;51.074;3.704;2024-02-21T14:43:51;9.40;99.90
26703;DHT22;14316;51.074;3.704;2024-02-21T14:46:17;9.30;99.90
26703;DHT22;14316;51.074;3.704;2024-02-21T14:48:43;9.20;99.90
26703;DHT22;14316;51.074;3.704;2024-02-21T14:51:10;9.20;99.90
26703;DHT22;14316;51.074;3.704;2024-02-21T14:53:36;9.20;99.90
26703;DHT22;14316;51.074;3.704;2024-02-21T14:56:02;9.30;99.90
26703;DHT22;14316;51.074;3.704;2024-02-21T14:58:28;9.30;99.90
26703;DHT22;14316;51.074;3.704;2024-02-21T15:00:54;9.30;99.90
26703;DHT22;14316;51.074;3.704;2024-02-21T15:03:19;9.30;99.90
26703;DHT22;14316;51.074;3.704;2024-02-21T15:05:46;9.40;99.90
26703;DHT22;14316;51.074;3.704;2024-02-21T15:08:13;9.40;99.90
26703;DHT22;14316;51.074;3.704;2024-02-21T15:10:42;9.30;99.90
26703;DHT22;14316;51.074;3.704;2024-02-21T15:13:08;9.40;99.90
26703;DHT22;14316;51.074;3.704;2024-02-21T15:15:34;9.30;99.90
26703;DHT22;14316;51.074;3.704;2024-02-21T15:18:00;9.30;99.90
26703;DHT22;14316;51.074;3.704;2024-02-21T15:20:26;9.30;99.90
26703;DHT22;14316;51.074;3.704;2024-02-21T15:22:53;9.30;99.90
26703;DHT22;14316;51.074;3.704;2024-02-21T15:25:19;9.30;99.90
26703;DHT22;14316;51.074;3.704;2024-02-21T15:27:45;9.30;99.90
26703;DHT22;14316;51.074;3.704;2024-02-21T15:30:12;9.30;99.90
26703;DHT22;14316;51.074;3.704;2024-02-21T15:32:38;9.30;99.90
26703;DHT22;14316;51.074;3.704;2024-02-21T15:35:05;9.30;99.90
26703;DHT22;14316;51.074;3.704;2024-02-21T15:37:33;9.30;99.90
26703;DHT22;14316;51.074;3.704;2024-02-21T15:39:59;9.40;99.90
26703;DHT22;14316;51.074;3.704;2024-02-21T15:42:24;9.30;99.90
26703;DHT22;14316;51.074;3.704;2024-02-21T15:44:50;9.40;99.90
26703;DHT22;14316;51.074;3.704;2024-02-21T15:47:16;9.60;99.90
26703;DHT22;14316;51.074;3.704;2024-02-21T15:49:44;9.60;99.90
26703;DHT22;14316;51.074;3.704;2024-02-21T15:52:10;9.50;99.90
26703;DHT22;14316;51.074;3.704;2024-02-21T15:54:38;9.30;99.90
26703;DHT22;14316;51.074;3.704;2024-02-21T15:57:04;9.30;99.90